Time;durP1;ratioP1;P1;durP2;ratioP2;P2;SDS_P1;SDS_P2;PMS_P1;PMS_P2;Temp;Humidity;BMP_temperature;BMP_pressure;BME280_temperature;BME280_humidity;BME280_pressure;Samples;Min_cycle;Max_cycle;Signal;HPM_P1;HPM_P2
2023/09/28 00:01:12;;;;;;;7.57;1.00;;;;;;;12.19;100.00;99832.56;5037105;28;20115;-75
2023/09/28 00:03:41;;;;;;;0.80;0.55;;;;;;;12.17;100.00;99831.94;5040188;28;20419;-75
2023/09/28 00:06:09;;;;;;;1.80;0.60;;;;;;;12.14;100.00;99826.97;5072945;28;20025;-75
2023/09/28 00:08:35;;;;;;;4.97;1.25;;;;;;;12.12;100.00;99827.19;5056073;28;20043;-76
2023/09/28 00:11:00;;;;;;;1.73;0.73;;;;;;;12.07;100.00;99816.22;5056563;28;20040;-76
2023/09/28 00:13:26;;;;;;;6.28;1.27;;;;;;;12.07;100.00;99824.28;5072691;28;20032;-76
2023/09/28 00:15:51;;;;;;;1.40;0.50;;;;;;;12.03;100.00;99820.34;5039440;28;20032;-76
2023/09/28 00:18:17;;;;;;;7.97;1.33;;;;;;;11.92;100.00;99831.75;5056179;28;20078;-76
2023/09/28 00:20:44;;;;;;;2.13;0.73;;;;;;;11.94;100.00;99857.44;5056382;28;20028;-76
2023/09/28 00:23:10;;;;;;;0.43;0.43;;;;;;;11.99;100.00;99883.78;5023346;28;20139;-76
2023/09/28 00:25:35;;;;;;;2.22;0.95;;;;;;;12.01;100.00;99887.94;5055984;28;20115;-76
2023/09/28 00:28:02;;;;;;;3.08;1.10;;;;;;;12.01;100.00;99879.84;5039168;28;20031;-76
2023/09/28 00:30:27;;;;;;;2.33;0.70;;;;;;;12.03;100.00;99885.00;5055895;28;20033;-76
2023/09/28 00:32:56;;;;;;;2.75;1.08;;;;;;;12.01;100.00;99871.75;5056296;28;20056;-76
2023/09/28 00:35:27;;;;;;;6.85;1.20;;;;;;;11.97;100.00;99872.38;5039331;28;20406;-76
2023/09/28 00:37:54;;;;;;;7.85;1.60;;;;;;;11.91;100.00;99895.59;5056034;28;20102;-76
2023/09/28 00:40:31;;;;;;;2.40;0.95;;;;;;;11.92;100.00;99908.00;5022741;28;20380;-76
2023/09/28 00:43:02;;;;;;;5.43;0.90;;;;;;;11.95;100.00;99912.97;5057316;28;20032;-76
2023/09/28 00:45:30;;;;;;;7.93;1.53;;;;;;;11.94;100.00;99899.72;5056518;28;20136;-75
2023/09/28 00:48:03;;;;;;;1.55;1.42;;;;;;;11.93;100.00;99893.50;5073354;28;20527;-76
2023/09/28 00:50:33;;;;;;;3.90;0.88;;;;;;;11.90;100.00;99887.69;5038857;28;20482;-76
2023/09/28 00:53:06;;;;;;;4.70;0.80;;;;;;;11.87;100.00;99888.94;5039228;28;20036;-76
2023/09/28 00:55:32;;;;;;;7.70;1.60;;;;;;;11.87;100.00;99888.94;5038324;28;20475;-76
2023/09/28 00:58:03;;;;;;;6.95;1.30;;;;;;;11.87;100.00;99905.09;5038857;28;20094;-76
2023/09/28 01:00:31;;;;;;;5.30;0.80;;;;;;;11.86;100.00;99909.66;5039649;28;20442;-76
2023/09/28 01:03:01;;;;;;;1.83;0.80;;;;;;;11.91;100.00;99916.28;5056124;28;20043;-76
2023/09/28 01:05:31;;;;;;;1.92;0.43;;;;;;;11.93;100.00;99916.91;5023485;28;20505;-76
2023/09/28 01:08:05;;;;;;;2.42;1.00;;;;;;;11.93;100.00;99920.44;5039156;28;20048;-76
2023/09/28 01:10:38;;;;;;;3.42;1.52;;;;;;;11.91;100.00;99927.06;5056323;28;20060;-76
2023/09/28 01:13:20;;;;;;;2.97;1.10;;;;;;;11.88;100.00;99921.06;5071985;28;20041;-76
2023/09/28 01:15:49;;;;;;;9.00;1.10;;;;;;;11.85;100.00;99932.22;5072230;28;20112;-76
2023/09/28 01:18:19;;;;;;;2.65;0.77;;;;;;;11.85;100.00;99939.44;5072168;28;20063;-77
2023/09/28 01:20:51;;;;;;;3.05;0.95;;;;;;;11.82;100.00;99946.06;5072138;28;20028;-76
2023/09/28 01:23:18;;;;;;;1.98;0.60;;;;;;;11.80;100.00;99953.56;5072016;28;20028;-76
2023/09/28 01:25:46;;;;;;;6.97;0.93;;;;;;;11.82;100.00;99962.22;5055336;28;20037;-76
2023/09/28 01:28:16;;;;;;;7.43;1.40;;;;;;;11.82;100.00;99954.16;5056232;28;20024;-76
2023/09/28 01:30:46;;;;;;;3.78;1.42;;;;;;;11.80;100.00;99956.25;5055392;28;20032;-76
2023/09/28 01:33:14;;;;;;;3.25;0.90;;;;;;;11.80;100.00;99961.63;5039041;28;20036;-76
2023/09/28 01:35:40;;;;;;;3.33;1.33;;;;;;;11.70;100.00;99945.03;5055415;28;20059;-76
2023/09/28 01:38:24;;;;;;;7.68;1.08;;;;;;;11.60;100.00;99941.88;5055283;28;20036;-76
2023/09/28 01:40:50;;;;;;;5.47;1.25;;;;;;;11.57;100.00;99934.22;5071546;28;20483;-76
2023/09/28 01:43:19;;;;;;;4.07;1.13;;;;;;;11.53;100.00;99922.19;5071679;28;20033;-76
2023/09/28 01:45:46;;;;;;;9.38;1.63;;;;;;;11.45;100.00;99923.19;5055443;28;20028;-74
2023/09/28 01:48:12;;;;;;;1.13;0.55;;;;;;;11.37;100.00;99942.22;5038515;28;20029;-74
2023/09/28 01:50:40;;;;;;;1.65;0.50;;;;;;;11.31;100.00;99946.53;5038092;28;20376;-74
2023/09/28 01:53:08;;;;;;;9.13;1.42;;;;;;;11.21;100.00;99967.59;5039058;28;20035;-74
2023/09/28 01:55:35;;;;;;;10.40;1.58;;;;;;;11.13;100.00;99971.28;5054616;28;20033;-75
2023/09/28 01:58:03;;;;;;;5.88;1.83;;;;;;;11.06;100.00;99967.75;5055245;28;20047;-76
2023/09/28 02:00:29;;;;;;;10.10;1.48;;;;;;;10.97;100.00;99964.38;5054876;28;20036;-76
2023/09/28 02:02:56;;;;;;;16.13;2.10;;;;;;;10.94;100.00;99966.63;5055206;28;20033;-76
2023/09/28 02:05:28;;;;;;;8.10;1.95;;;;;;;10.88;100.00;99962.06;5038207;28;20043;-75
2023/09/28 02:08:08;;;;;;;6.00;2.00;;;;;;;10.92;100.00;99974.06;5045352;28;20039;-75
2023/09/28 02:10:33;;;;;;;12.05;2.25;;;;;;;10.94;100.00;99967.44;5058237;28;20028;-76
2023/09/28 02:12:59;;;;;;;6.43;1.63;;;;;;;10.92;100.00;99966.00;5058248;28;20086;-76
2023/09/28 02:15:25;;;;;;;3.72;1.48;;;;;;;10.91;100.00;99975.09;5075010;28;20091;-76
2023/09/28 02:17:53;;;;;;;5.80;1.02;;;;;;;11.02;100.00;99960.25;5074852;28;20511;-75
2023/09/28 02:20:23;;;;;;;5.47;1.48;;;;;;;11.08;100.00;99954.09;5074718;28;20048;-76
2023/09/28 02:22:53;;;;;;;7.35;1.60;;;;;;;11.05;100.00;99955.31;5058761;28;20029;-76
2023/09/28 02:25:21;;;;;;;5.35;1.65;;;;;;;10.95;100.00;99952.97;5041500;28;20040;-76
2023/09/28 02:27:50;;;;;;;12.75;3.38;;;;;;;10.84;100.00;99971.53;5057797;28;20471;-76
2023/09/28 02:30:19;;;;;;;9.82;1.80;;;;;;;10.77;100.00;99980.38;5074510;28;20111;-75
2023/09/28 02:32:47;;;;;;;8.50;2.00;;;;;;;10.68;100.00;99986.94;5058280;28;20032;-76
2023/09/28 02:35:18;;;;;;;7.82;1.90;;;;;;;10.65;100.00;99992.69;5057894;28;20040;-75
2023/09/28 02:37:46;;;;;;;14.02;2.35;;;;;;;10.65;100.00;99991.88;5058919;28;20573;-75
2023/09/28 02:40:16;;;;;;;11.45;2.65;;;;;;;10.64;100.00;99992.88;5057621;28;20475;-75
2023/09/28 02:42:42;;;;;;;10.82;1.67;;;;;;;10.65;100.00;99994.56;5041369;28;20115;-76
2023/09/28 02:45:12;;;;;;;4.80;1.23;;;;;;;10.60;100.00;99987.06;5057523;28;20037;-75
2023/09/28 02:47:46;;;;;;;8.23;1.83;;;;;;;10.57;100.00;99982.91;5058099;28;20119;-75
2023/09/28 02:50:15;;;;;;;7.97;1.92;;;;;;;10.52;100.00;99979.97;5058057;28;20036;-76
2023/09/28 02:52:45;;;;;;;7.88;1.98;;;;;;;10.50;100.00;99991.94;5057590;28;20037;-76
2023/09/28 02:55:12;;;;;;;6.07;2.28;;;;;;;10.38;100.00;99975.53;5074001;28;20032;-76
2023/09/28 02:57:41;;;;;;;10.55;1.90;;;;;;;10.29;100.00;99976.66;5074083;28;20029;-76
2023/09/28 03:02:56;;;;;;;7.60;1.38;;;;;;;10.19;100.00;99968.06;5074113;28;20028;-75
2023/09/28 03:05:27;;;;;;;9.93;1.73;;;;;;;10.17;100.00;99962.09;5058942;28;20108;-75
2023/09/28 03:07:53;;;;;;;11.48;1.65;;;;;;;10.17;100.00;99972.81;5058075;28;20118;-76
2023/09/28 03:10:19;;;;;;;6.65;1.77;;;;;;;10.14;100.00;99968.66;5057111;28;20459;-76
2023/09/28 03:12:46;;;;;;;7.07;0.95;;;;;;;10.10;100.00;99978.94;5056998;28;20098;-76
2023/09/28 03:15:16;;;;;;;5.78;1.58;;;;;;;10.11;100.00;99985.19;5073961;28;20032;-76
2023/09/28 03:17:46;;;;;;;13.73;2.17;;;;;;;10.05;100.00;99981.38;5041040;28;20045;-76
2023/09/28 03:20:15;;;;;;;3.35;1.60;;;;;;;9.99;100.00;99989.38;5057514;28;20028;-76
2023/09/28 03:22:45;;;;;;;10.50;1.95;;;;;;;10.04;100.00;99992.31;5073794;28;20094;-76
2023/09/28 03:25:17;;;;;;;8.73;1.60;;;;;;;10.19;100.00;99981.50;5040797;28;20025;-76
2023/09/28 03:27:50;;;;;;;17.73;2.05;;;;;;;10.34;100.00;99982.31;5041048;28;20178;-76
2023/09/28 03:30:17;;;;;;;5.20;2.05;;;;;;;10.41;100.00;99963.56;5041093;28;20490;-76
2023/09/28 03:32:49;;;;;;;10.70;1.65;;;;;;;10.47;100.00;99974.34;5057675;28;20083;-75
2023/09/28 03:35:32;;;;;;;8.10;1.48;;;;;;;10.48;100.00;99965.28;5058026;28;20117;-75
2023/09/28 03:37:58;;;;;;;7.55;1.77;;;;;;;10.40;100.00;99962.72;5072973;28;20083;-76
2023/09/28 03:40:33;;;;;;;10.70;1.88;;;;;;;10.33;100.00;99980.66;5058104;28;20037;-75
2023/09/28 03:43:01;;;;;;;7.28;1.63;;;;;;;10.20;100.00;99961.69;5057459;28;20036;-76
2023/09/28 03:45:30;;;;;;;8.82;1.33;;;;;;;10.11;100.00;99963.69;5024169;28;20038;-76
2023/09/28 03:47:58;;;;;;;8.57;1.60;;;;;;;10.06;100.00;99963.44;5039874;28;20059;-76
2023/09/28 03:50:24;;;;;;;8.85;1.33;;;;;;;10.10;100.00;99962.00;5056757;28;20166;-76
2023/09/28 03:52:52;;;;;;;7.30;1.58;;;;;;;10.09;100.00;99963.88;5073110;28;20123;-76
2023/09/28 03:55:20;;;;;;;4.35;1.00;;;;;;;10.05;100.00;99967.13;5040216;28;20036;-76
2023/09/28 03:57:46;;;;;;;14.98;2.38;;;;;;;9.94;100.00;99968.47;5072867;28;20027;-76
2023/09/28 04:00:16;;;;;;;4.68;1.08;;;;;;;9.89;100.00;99962.81;5039769;28;20468;-76
2023/09/28 04:02:46;;;;;;;7.38;1.85;;;;;;;9.91;100.00;99980.41;5040458;28;20037;-76
2023/09/28 04:05:17;;;;;;;10.18;1.40;;;;;;;9.88;100.00;99961.19;5039982;28;20475;-76
2023/09/28 04:07:48;;;;;;;4.18;1.10;;;;;;;9.82;100.00;99945.84;5040822;28;20058;-76
2023/09/28 04:10:18;;;;;;;12.85;2.53;;;;;;;9.83;100.00;99942.13;5056302;28;20131;-76
2023/09/28 04:12:47;;;;;;;5.35;1.33;;;;;;;9.77;100.00;99938.34;5056670;28;20036;-75
2023/09/28 04:15:14;;;;;;;11.80;1.70;;;;;;;9.82;100.00;99943.97;5073003;28;20028;-76
2023/09/28 04:17:40;;;;;;;7.75;2.10;;;;;;;9.83;100.00;99932.22;5039857;28;20098;-76
2023/09/28 04:20:06;;;;;;;9.63;1.83;;;;;;;9.80;100.00;99923.72;5039621;28;20462;-76
2023/09/28 04:22:32;;;;;;;13.65;1.88;;;;;;;9.81;100.00;99920.81;5039074;28;20041;-75
2023/09/28 04:24:58;;;;;;;10.43;1.55;;;;;;;9.88;100.00;99934.31;5039557;28;20040;-76
2023/09/28 04:27:24;;;;;;;9.73;1.80;;;;;;;9.88;100.00;99934.31;5038954;28;20027;-75
2023/09/28 04:29:52;;;;;;;9.98;2.17;;;;;;;9.92;100.00;99949.00;5022097;28;20078;-76
2023/09/28 04:32:20;;;;;;;5.88;1.40;;;;;;;9.88;100.00;99943.22;5055720;28;20040;-76
2023/09/28 04:34:46;;;;;;;8.52;1.45;;;;;;;9.85;100.00;99943.59;5038960;28;20059;-76
2023/09/28 04:37:16;;;;;;;5.95;1.60;;;;;;;9.80;100.00;99950.56;5039097;28;20037;-75
2023/09/28 04:39:42;;;;;;;8.70;1.80;;;;;;;9.83;100.00;99940.25;5056562;28;20031;-76
2023/09/28 04:42:20;;;;;;;6.43;1.45;;;;;;;9.97;100.00;99935.84;5072591;28;20071;-75
2023/09/28 04:44:48;;;;;;;9.82;1.85;;;;;;;10.07;100.00;99917.56;5039520;28;20555;-76
2023/09/28 04:47:14;;;;;;;14.50;1.90;;;;;;;10.08;100.00;99926.44;5072370;28;20474;-76
2023/09/28 04:49:41;;;;;;;10.65;1.63;;;;;;;10.05;100.00;99930.34;5038674;28;20039;-75
2023/09/28 04:52:09;;;;;;;6.68;1.73;;;;;;;10.00;100.00;99948.91;5072469;28;20024;-76
2023/09/28 04:54:43;;;;;;;8.63;1.35;;;;;;;9.99;100.00;99952.59;5056722;28;20032;-75
2023/09/28 04:57:09;;;;;;;6.57;1.60;;;;;;;9.91;100.00;99955.41;5038986;28;20408;-76
2023/09/28 04:59:38;;;;;;;10.45;2.15;;;;;;;9.83;100.00;99951.00;5038743;28;20037;-75
2023/09/28 05:02:04;;;;;;;10.20;1.80;;;;;;;9.83;100.00;99950.19;5055587;28;20410;-75
2023/09/28 05:04:30;;;;;;;8.25;2.13;;;;;;;9.78;100.00;99941.84;5055850;28;20032;-76
2023/09/28 05:07:02;;;;;;;7.38;2.35;;;;;;;9.83;100.00;99951.00;5040121;28;20048;-75
2023/09/28 05:09:30;;;;;;;10.50;1.70;;;;;;;9.82;100.00;99960.09;5055295;28;20044;-75
2023/09/28 05:11:59;;;;;;;9.80;2.15;;;;;;;9.77;100.00;99961.69;5038926;28;20045;-75
2023/09/28 05:14:26;;;;;;;7.53;1.48;;;;;;;9.74;100.00;99946.78;5072095;28;20043;-75
2023/09/28 05:16:53;;;;;;;9.18;2.35;;;;;;;9.73;100.00;99938.91;5071793;28;20037;-76
2023/09/28 05:19:24;;;;;;;8.27;1.80;;;;;;;9.68;100.00;99948.38;5055721;28;20032;-76
2023/09/28 05:21:50;;;;;;;13.43;2.78;;;;;;;9.71;100.00;99940.94;5056021;28;20037;-75
2023/09/28 05:24:18;;;;;;;11.45;2.33;;;;;;;9.71;100.00;99941.78;5039365;28;20166;-75
2023/09/28 05:26:44;;;;;;;7.60;1.75;;;;;;;9.79;100.00;99949.75;5055458;28;20379;-76
2023/09/28 05:29:10;;;;;;;12.23;1.98;;;;;;;9.80;100.00;99935.28;5037674;28;20487;-75
2023/09/28 05:31:36;;;;;;;8.15;1.83;;;;;;;9.83;100.00;99937.56;5055105;28;20024;-75
2023/09/28 05:34:06;;;;;;;10.40;2.25;;;;;;;9.86;100.00;99939.06;5038645;28;20033;-75
2023/09/28 05:36:32;;;;;;;10.85;1.98;;;;;;;9.93;100.00;99939.97;5038861;28;20040;-75
2023/09/28 05:38:58;;;;;;;7.85;2.20;;;;;;;9.98;100.00;99932.16;5038898;28;20072;-75
2023/09/28 05:41:26;;;;;;;11.77;2.05;;;;;;;9.99;100.00;99932.97;5039868;28;20063;-75
2023/09/28 05:43:52;;;;;;;13.27;2.60;;;;;;;9.99;100.00;99923.06;5042655;28;20120;-75
2023/09/28 05:46:21;;;;;;;5.78;1.70;;;;;;;10.06;100.00;99932.03;5042347;28;20028;-76
2023/09/28 05:48:49;;;;;;;8.93;1.95;;;;;;;10.16;100.00;99926.34;5043054;28;20037;-75
2023/09/28 05:51:15;;;;;;;11.63;2.65;;;;;;;10.16;100.00;99915.59;5058642;28;20074;-75
2023/09/28 05:53:46;;;;;;;12.80;2.60;;;;;;;10.20;100.00;99922.22;5058811;28;20028;-75
2023/09/28 05:56:12;;;;;;;12.25;2.15;;;;;;;10.21;100.00;99913.13;5042676;28;20463;-75
2023/09/28 05:58:43;;;;;;;13.18;2.70;;;;;;;10.28;100.00;99910.53;5058592;28;20028;-75
2023/09/28 06:01:13;;;;;;;12.32;2.17;;;;;;;10.38;100.00;99916.41;5058355;28;20538;-75
2023/09/28 06:03:44;;;;;;;13.73;2.45;;;;;;;10.46;100.00;99912.75;5059388;28;20110;-75
2023/09/28 06:06:16;;;;;;;9.52;2.58;;;;;;;10.47;100.00;99893.72;5042028;28;20071;-75
2023/09/28 06:08:47;;;;;;;12.05;2.70;;;;;;;10.41;100.00;99894.50;5058523;28;20033;-75
2023/09/28 06:11:16;;;;;;;10.43;3.38;;;;;;;10.44;100.00;99888.75;5075307;28;20033;-75
2023/09/28 06:13:43;;;;;;;11.43;3.00;;;;;;;10.42;100.00;99903.41;5042051;28;20042;-75
2023/09/28 06:16:14;;;;;;;12.80;2.35;;;;;;;10.37;100.00;99897.78;5025465;28;20127;-76
2023/09/28 06:18:41;;;;;;;6.18;2.10;;;;;;;10.39;100.00;99893.88;5058782;28;20356;-75
2023/09/28 06:21:08;;;;;;;11.07;2.47;;;;;;;10.37;100.00;99893.22;5058525;28;20028;-75
2023/09/28 06:23:34;;;;;;;9.00;2.08;;;;;;;10.39;100.00;99884.97;5041716;28;20047;-75
2023/09/28 06:26:03;;;;;;;10.82;2.45;;;;;;;10.48;100.00;99886.50;5041810;28;20036;-76
2023/09/28 06:28:28;;;;;;;12.25;3.47;;;;;;;10.49;100.00;99889.00;5042321;28;20035;-75
2023/09/28 06:30:55;;;;;;;11.18;2.67;;;;;;;10.54;100.00;99886.53;5041275;28;20395;-75
2023/09/28 06:33:28;;;;;;;15.27;3.13;;;;;;;10.67;100.00;99890.34;5074718;28;20402;-75
2023/09/28 06:35:57;;;;;;;12.43;2.33;;;;;;;10.78;100.00;99889.78;5025783;28;20046;-75
2023/09/28 06:38:27;;;;;;;13.30;2.70;;;;;;;10.89;100.00;99908.03;5074798;28;20082;-75
2023/09/28 06:40:58;;;;;;;11.85;3.13;;;;;;;10.93;100.00;99903.94;5058195;28;20052;-75
2023/09/28 06:43:26;;;;;;;12.70;2.53;;;;;;;11.03;100.00;99905.41;5041328;28;20135;-76
2023/09/28 06:45:56;;;;;;;14.30;3.45;;;;;;;11.05;100.00;99898.81;5041433;28;20483;-77
2023/09/28 06:48:27;;;;;;;15.38;3.50;;;;;;;11.06;100.00;99887.03;5041361;28;20040;-77
2023/09/28 06:50:57;;;;;;;13.88;3.35;;;;;;;11.11;100.00;99889.94;5073622;28;20048;-76
2023/09/28 06:53:26;;;;;;;11.68;2.97;;;;;;;11.15;100.00;99896.59;5057090;28;20123;-76
2023/09/28 06:55:59;;;;;;;10.15;3.38;;;;;;;11.20;100.00;99896.81;5057434;28;20032;-76
2023/09/28 06:58:25;;;;;;;11.02;3.13;;;;;;;11.24;100.00;99891.84;5072745;28;20032;-75
2023/09/28 07:00:51;;;;;;;13.48;2.97;;;;;;;11.30;100.00;99899.13;5040662;28;20097;-75
2023/09/28 07:03:16;;;;;;;8.82;2.90;;;;;;;11.32;100.00;99907.00;5056907;28;20024;-76
2023/09/28 07:05:42;;;;;;;13.52;4.07;;;;;;;11.30;100.00;99901.84;5039515;28;20119;-76
2023/09/28 07:08:08;;;;;;;12.90;3.03;;;;;;;11.23;100.00;99899.09;5038449;28;20024;-76
2023/09/28 07:10:37;;;;;;;23.00;3.58;;;;;;;11.24;100.00;99899.94;5039894;28;20051;-76
2023/09/28 07:13:06;;;;;;;15.73;3.35;;;;;;;11.21;100.00;99884.19;5024088;28;20036;-76
2023/09/28 07:15:40;;;;;;;10.88;3.17;;;;;;;11.22;100.00;99884.00;5055863;28;20089;-76
2023/09/28 07:18:06;;;;;;;19.63;3.30;;;;;;;11.21;100.00;99873.41;5073830;28;20493;-75
2023/09/28 07:20:31;;;;;;;13.90;3.45;;;;;;;11.23;100.00;99869.50;5040275;28;20032;-76
2023/09/28 07:22:57;;;;;;;12.88;3.90;;;;;;;11.25;100.00;99879.25;5040641;28;20467;-75
2023/09/28 07:25:26;;;;;;;14.38;3.25;;;;;;;11.37;100.00;99883.00;5040252;28;20032;-75
2023/09/28 07:27:55;;;;;;;14.48;3.25;;;;;;;11.44;100.00;99884.69;5025892;28;20033;-76
2023/09/28 07:30:23;;;;;;;10.45;3.33;;;;;;;11.51;100.00;99887.41;5040159;28;20043;-75
2023/09/28 07:32:59;;;;;;;13.85;3.40;;;;;;;11.64;100.00;99891.97;5039745;28;20028;-75
2023/09/28 07:35:31;;;;;;;11.65;3.72;;;;;;;11.78;100.00;99890.16;5073219;28;20056;-75
2023/09/28 07:37:56;;;;;;;13.82;3.50;;;;;;;11.83;100.00;99879.59;5073155;28;20040;-76
2023/09/28 07:40:26;;;;;;;12.10;3.45;;;;;;;11.87;100.00;99883.53;5040117;28;20097;-76
2023/09/28 07:42:52;;;;;;;14.70;3.50;;;;;;;11.87;100.00;99888.94;5073088;28;20032;-76
2023/09/28 07:45:18;;;;;;;13.52;3.70;;;;;;;11.89;100.00;99892.25;5039378;28;20029;-76
2023/09/28 07:47:45;;;;;;;10.77;3.08;;;;;;;11.91;100.00;99892.03;5039243;28;20086;-76
2023/09/28 07:50:13;;;;;;;17.90;4.13;;;;;;;11.95;100.00;99896.81;5072463;28;20063;-76
2023/09/28 07:52:43;;;;;;;11.82;3.50;;;;;;;11.97;100.00;99883.16;5056925;28;20463;-77
2023/09/28 07:55:10;;;;;;;17.40;4.28;;;;;;;12.00;100.00;99871.97;5023499;28;20040;-76
2023/09/28 07:57:36;;;;;;;13.82;4.45;;;;;;;12.02;100.00;99864.50;5039906;28;20044;-76
2023/09/28 08:00:04;;;;;;;20.33;4.32;;;;;;;12.05;100.00;99866.78;5039566;28;20044;-76
2023/09/28 08:02:30;;;;;;;17.33;3.90;;;;;;;12.09;100.00;99868.00;5039189;28;20410;-76
2023/09/28 08:04:58;;;;;;;16.10;5.53;;;;;;;12.11;100.00;99868.63;5038880;28;20032;-76
2023/09/28 08:07:24;;;;;;;15.73;3.28;;;;;;;12.18;100.00;99874.84;5055317;28;20032;-76
2023/09/28 08:09:50;;;;;;;15.23;3.30;;;;;;;12.31;100.00;99874.03;5038745;28;20039;-76
2023/09/28 08:12:16;;;;;;;18.50;4.00;;;;;;;12.40;100.00;99888.13;5038565;28;20105;-76
2023/09/28 08:14:42;;;;;;;12.80;3.33;;;;;;;12.49;100.00;99886.84;5055036;28;20040;-76
2023/09/28 08:17:09;;;;;;;13.82;3.50;;;;;;;12.54;100.00;99873.56;5056003;28;20043;-76
2023/09/28 08:19:43;;;;;;;11.32;3.30;;;;;;;12.53;100.00;99874.63;5072355;28;20115;-76
2023/09/28 08:22:33;;;;;;;15.88;3.78;;;;;;;12.49;100.00;99859.88;5072044;28;20029;-75
2023/09/28 08:25:08;;;;;;;14.95;4.05;;;;;;;12.51;100.00;99847.03;5039386;28;20036;-76
2023/09/28 08:27:41;;;;;;;14.25;3.10;;;;;;;12.56;100.00;99865.28;5038442;28;20033;-76
2023/09/28 08:30:18;;;;;;;11.57;3.80;;;;;;;12.69;100.00;99879.56;5036632;28;20399;-77
2023/09/28 08:32:43;;;;;;;19.75;3.65;;;;;;;12.71;100.00;99869.38;5053495;28;20054;-76
2023/09/28 08:35:11;;;;;;;12.15;3.53;;;;;;;12.67;100.00;99867.31;5036791;28;20538;-76
2023/09/28 08:37:37;;;;;;;11.45;3.72;;;;;;;12.70;100.00;99862.34;5054020;28;20040;-76
2023/09/28 08:40:04;;;;;;;9.95;3.85;;;;;;;12.85;100.00;99853.16;5037735;28;20058;-76
2023/09/28 08:42:31;;;;;;;14.57;3.38;;;;;;;12.99;100.00;99852.06;5055879;28;20024;-76
2023/09/28 08:45:01;;;;;;;17.20;3.78;;;;;;;13.11;100.00;99844.13;5056150;28;20364;-76
2023/09/28 08:47:32;;;;;;;14.82;3.22;;;;;;;13.17;100.00;99846.78;5039320;28;20036;-76
2023/09/28 08:49:58;;;;;;;17.65;3.15;;;;;;;13.16;100.00;99850.53;5055742;28;20036;-76
2023/09/28 08:52:24;;;;;;;11.35;4.00;;;;;;;13.13;100.00;99855.56;5039430;28;20139;-76
2023/09/28 08:54:50;;;;;;;13.50;3.95;;;;;;;13.10;100.00;99845.19;5039338;28;20112;-76
2023/09/28 08:57:16;;;;;;;11.70;3.58;;;;;;;13.17;100.00;99854.06;5039330;28;20036;-75
2023/09/28 08:59:42;;;;;;;21.00;3.85;;;;;;;13.31;100.00;99860.25;5055859;28;20050;-77
2023/09/28 09:02:08;;;;;;;13.93;3.75;;;;;;;13.41;100.00;99861.44;5040328;28;20041;-76
2023/09/28 09:04:34;;;;;;;13.43;3.53;;;;;;;13.48;100.00;99857.88;5039594;28;20113;-76
2023/09/28 09:07:04;;;;;;;15.10;4.00;;;;;;;13.50;100.00;99870.13;5055712;28;20496;-75
2023/09/28 09:09:32;;;;;;;16.45;3.80;;;;;;;13.54;100.00;99874.03;5039012;28;20524;-76
2023/09/28 09:11:58;;;;;;;19.98;4.75;;;;;;;13.53;100.00;99879.69;5055723;28;20475;-76
2023/09/28 09:14:30;;;;;;;17.90;3.60;;;;;;;13.49;100.00;99886.53;5055400;28;20045;-76
2023/09/28 09:16:55;;;;;;;14.68;4.55;;;;;;;13.43;100.00;99879.31;5041288;28;20048;-76
2023/09/28 09:19:21;;;;;;;14.35;3.85;;;;;;;13.41;100.00;99874.13;5041826;28;20394;-77
2023/09/28 09:21:47;;;;;;;15.40;4.20;;;;;;;13.37;100.00;99871.03;5057548;28;20032;-76
2023/09/28 09:24:14;;;;;;;20.13;4.60;;;;;;;13.36;100.00;99855.88;5057082;28;20029;-76
2023/09/28 09:26:47;;;;;;;18.30;4.32;;;;;;;13.33;100.00;99845.50;5040737;28;20064;-76
2023/09/28 09:29:16;;;;;;;;;;;;;;;13.32;100.00;99835.75;5057671;28;20115;-76
2023/09/28 09:31:49;;;;;;;17.23;4.28;;;;;;;13.36;100.00;99836.13;5073824;28;19919;-76
2023/09/28 09:34:20;;;;;;;15.98;3.88;;;;;;;13.36;100.00;99837.00;5042167;28;20040;-76
2023/09/28 09:36:51;;;;;;;19.75;4.55;;;;;;;13.38;100.00;99842.16;5075716;28;20024;-76
2023/09/28 09:39:22;;;;;;;16.13;4.03;;;;;;;13.39;100.00;99841.13;5059057;28;20391;-76
2023/09/28 09:41:49;;;;;;;15.00;4.32;;;;;;;13.41;100.00;99841.72;5059034;28;20501;-76
2023/09/28 09:44:21;;;;;;;17.50;4.15;;;;;;;13.46;100.00;99841.91;5058981;28;20056;-76
2023/09/28 09:46:54;;;;;;;18.83;3.75;;;;;;;13.54;100.00;99844.34;5075262;28;20429;-74
2023/09/28 09:49:23;;;;;;;11.73;3.67;;;;;;;13.70;100.00;99840.28;5025999;28;20508;-75
2023/09/28 09:51:49;;;;;;;13.07;3.70;;;;;;;13.87;100.00;99837.88;5075315;28;20052;-73
2023/09/28 09:54:16;;;;;;;19.88;4.45;;;;;;;14.02;100.00;99835.66;5058798;28;20149;-74
2023/09/28 09:56:51;;;;;;;26.00;5.22;;;;;;;14.16;100.00;99838.28;5042488;28;20036;-73
2023/09/28 09:59:19;;;;;;;14.23;3.92;;;;;;;14.30;100.00;99832.50;5075381;28;20040;-73
2023/09/28 10:01:55;;;;;;;13.32;4.07;;;;;;;14.32;100.00;99839.59;5058628;28;20032;-73
2023/09/28 10:04:23;;;;;;;14.50;4.07;;;;;;;14.37;100.00;99837.00;5058920;28;20036;-73
2023/09/28 10:06:56;;;;;;;11.73;3.75;;;;;;;14.44;100.00;99843.19;5058856;28;20078;-73
2023/09/28 10:09:22;;;;;;;19.40;4.78;;;;;;;14.59;100.00;99832.06;5058919;28;20028;-73
2023/09/28 10:11:49;;;;;;;17.95;5.93;;;;;;;14.64;100.00;99833.03;5075675;28;20039;-74
2023/09/28 10:14:18;;;;;;;13.23;3.60;;;;;;;14.63;100.00;99838.66;5074259;28;20540;-73
2023/09/28 10:16:47;;;;;;;13.55;3.95;;;;;;;14.67;100.00;99834.47;5057046;28;20116;-73
2023/09/28 10:19:15;;;;;;;14.70;3.28;;;;;;;14.58;100.00;99831.22;5073773;28;20082;-74
2023/09/28 10:21:40;;;;;;;21.42;5.90;;;;;;;14.50;100.00;99826.91;5040955;28;20391;-73
2023/09/28 10:24:10;;;;;;;20.02;4.78;;;;;;;14.48;100.00;99823.59;5040568;28;20028;-74
2023/09/28 10:26:35;;;;;;;13.77;4.47;;;;;;;14.33;100.00;99825.81;5056070;28;20103;-73
2023/09/28 10:29:05;;;;;;;16.92;3.50;;;;;;;14.34;100.00;99824.75;5040494;28;20589;-73
2023/09/28 10:31:43;;;;;;;14.13;3.22;;;;;;;14.41;100.00;99814.72;5073870;28;20032;-73
2023/09/28 10:34:09;;;;;;;11.98;3.60;;;;;;;14.43;100.00;99815.31;5037085;28;20033;-73
2023/09/28 10:36:37;;;;;;;13.98;4.10;;;;;;;14.51;100.00;99822.31;5040156;28;20588;-74
2023/09/28 10:39:08;;;;;;;15.73;3.80;;;;;;;14.56;100.00;99810.88;5040272;28;20037;-73
2023/09/28 10:41:36;;;;;;;9.98;3.40;;;;;;;14.59;100.00;99805.00;5057125;28;20105;-73
2023/09/28 10:44:11;;;;;;;14.48;4.60;;;;;;;14.63;100.00;99807.03;5056243;28;20024;-73
2023/09/28 10:46:57;;;;;;;13.75;4.55;;;;;;;14.60;100.00;99807.47;5040423;28;20032;-73
2023/09/28 10:49:23;;;;;;;15.07;3.85;;;;;;;14.54;100.00;99799.44;5056004;28;20041;-73
2023/09/28 10:51:51;;;;;;;15.68;3.80;;;;;;;14.59;100.00;99800.41;5072879;28;20043;-73
2023/09/28 10:54:17;;;;;;;14.40;4.43;;;;;;;14.59;100.00;99802.28;5056798;28;20037;-73
2023/09/28 10:56:43;;;;;;;19.85;4.60;;;;;;;14.61;100.00;99797.50;5039749;28;20040;-73
2023/09/28 10:59:11;;;;;;;11.63;4.30;;;;;;;14.69;100.00;99786.34;5040070;28;20056;-73
2023/09/28 11:01:41;;;;;;;15.43;3.67;;;;;;;14.75;100.00;99793.56;5039464;28;20483;-73
2023/09/28 11:04:07;;;;;;;14.13;4.10;;;;;;;14.87;100.00;99785.50;5055973;28;20075;-73
2023/09/28 11:06:33;;;;;;;16.48;4.30;;;;;;;14.89;100.00;99795.03;5056513;28;20093;-73
2023/09/28 11:09:01;;;;;;;13.50;3.83;;;;;;;14.98;100.00;99792.00;5039880;28;20040;-73
2023/09/28 11:11:30;;;;;;;13.43;4.22;;;;;;;15.10;100.00;99788.31;5038811;28;20052;-73
2023/09/28 11:13:59;;;;;;;12.38;3.60;;;;;;;15.38;100.00;99785.00;5011869;28;1278172;-73
2023/09/28 11:16:26;;;;;;;13.73;4.10;;;;;;;15.57;100.00;99790.34;5073671;28;20048;-73
2023/09/28 11:18:54;;;;;;;13.50;3.42;;;;;;;15.45;100.00;99784.06;5040655;28;20051;-73
2023/09/28 11:21:21;;;;;;;10.23;3.45;;;;;;;15.32;100.00;99785.94;5040587;28;20119;-73
2023/09/28 11:23:49;;;;;;;14.07;4.22;;;;;;;15.26;100.00;99783.31;5040707;28;20485;-73
2023/09/28 11:26:15;;;;;;;15.82;4.03;;;;;;;15.32;100.00;99791.34;5040582;28;20039;-73
2023/09/28 11:28:41;;;;;;;15.38;3.65;;;;;;;15.31;100.00;99783.44;5040448;28;20025;-73
2023/09/28 11:31:08;;;;;;;15.98;3.90;;;;;;;15.24;100.00;99770.03;5073218;28;20077;-73